sensor_id;sensor_type;location;lat;lon;timestamp;P1;durP1;ratioP1;P2;durP2;ratioP2
11042;SDS011;5574;48.786;10.120;2023-03-01T00:01:53;8.20;;;7.00;;
11042;SDS011;5574;48.786;10.120;2023-03-01T00:04:20;8.30;;;6.97;;
11042;SDS011;5574;48.786;10.120;2023-03-01T00:06:47;9.90;;;7.17;;
11042;SDS011;5574;48.786;10.120;2023-03-01T00:09:13;8.53;;;7.43;;
11042;SDS011;5574;48.786;10.120;2023-03-01T00:11:41;8.77;;;7.23;;
11042;SDS011;5574;48.786;10.120;2023-03-01T00:14:08;7.90;;;7.07;;
11042;SDS011;5574;48.786;10.120;2023-03-01T00:16:36;7.93;;;6.83;;
11042;SDS011;5574;48.786;10.120;2023-03-01T00:19:06;8.60;;;7.20;;
11042;SDS011;5574;48.786;10.120;2023-03-01T00:21:33;7.67;;;6.60;;
11042;SDS011;5574;48.786;10.120;2023-03-01T00:24:01;8.57;;;6.73;;
11042;SDS011;5574;48.786;10.120;2023-03-01T00:26:28;8.37;;;7.40;;
11042;SDS011;5574;48.786;10.120;2023-03-01T00:28:56;7.80;;;6.63;;
11042;SDS011;5574;48.786;10.120;2023-03-01T00:31:24;7.90;;;7.10;;
11042;SDS011;5574;48.786;10.120;2023-03-01T00:33:53;8.47;;;7.27;;
11042;SDS011;5574;48.786;10.120;2023-03-01T00:36:23;7.83;;;7.10;;
11042;SDS011;5574;48.786;10.120;2023-03-01T00:38:51;8.30;;;6.70;;
11042;SDS011;5574;48.786;10.120;2023-03-01T00:41:19;9.83;;;7.07;;
11042;SDS011;5574;48.786;10.120;2023-03-01T00:43:47;8.40;;;7.50;;
11042;SDS011;5574;48.786;10.120;2023-03-01T00:46:15;9.93;;;7.80;;
11042;SDS011;5574;48.786;10.120;2023-03-01T00:48:43;8.30;;;7.40;;
11042;SDS011;5574;48.786;10.120;2023-03-01T00:51:11;9.20;;;7.83;;
11042;SDS011;5574;48.786;10.120;2023-03-01T00:53:40;8.67;;;7.43;;
11042;SDS011;5574;48.786;10.120;2023-03-01T00:56:08;8.60;;;7.13;;
11042;SDS011;5574;48.786;10.120;2023-03-01T00:58:37;9.40;;;7.60;;
11042;SDS011;5574;48.786;10.120;2023-03-01T01:01:07;9.03;;;8.13;;
11042;SDS011;5574;48.786;10.120;2023-03-01T01:03:41;9.03;;;8.07;;
11042;SDS011;5574;48.786;10.120;2023-03-01T01:06:12;9.30;;;8.40;;
11042;SDS011;5574;48.786;10.120;2023-03-01T01:08:41;10.13;;;8.40;;
11042;SDS011;5574;48.786;10.120;2023-03-01T01:11:08;10.17;;;8.53;;
11042;SDS011;5574;48.786;10.120;2023-03-01T01:13:35;10.90;;;7.90;;
11042;SDS011;5574;48.786;10.120;2023-03-01T01:16:02;9.00;;;7.40;;
11042;SDS011;5574;48.786;10.120;2023-03-01T01:18:30;10.57;;;8.30;;
11042;SDS011;5574;48.786;10.120;2023-03-01T01:20:56;9.87;;;8.17;;
11042;SDS011;5574;48.786;10.120;2023-03-01T01:23:23;10.17;;;7.93;;
11042;SDS011;5574;48.786;10.120;2023-03-01T01:25:51;9.97;;;7.87;;
11042;SDS011;5574;48.786;10.120;2023-03-01T01:28:18;10.23;;;8.03;;
11042;SDS011;5574;48.786;10.120;2023-03-01T01:30:44;10.93;;;7.77;;
11042;SDS011;5574;48.786;10.120;2023-03-01T01:33:11;11.17;;;8.30;;
11042;SDS011;5574;48.786;10.120;2023-03-01T01:35:38;9.97;;;7.97;;
11042;SDS011;5574;48.786;10.120;2023-03-01T01:38:04;9.90;;;7.43;;
11042;SDS011;5574;48.786;10.120;2023-03-01T01:40:31;11.97;;;8.47;;
11042;SDS011;5574;48.786;10.120;2023-03-01T01:42:59;10.27;;;8.13;;
11042;SDS011;5574;48.786;10.120;2023-03-01T01:45:30;9.00;;;7.53;;
11042;SDS011;5574;48.786;10.120;2023-03-01T01:47:59;10.23;;;8.20;;
11042;SDS011;5574;48.786;10.120;2023-03-01T01:50:30;9.20;;;7.87;;
11042;SDS011;5574;48.786;10.120;2023-03-01T01:53:02;11.70;;;9.10;;
11042;SDS011;5574;48.786;10.120;2023-03-01T01:55:32;11.13;;;9.07;;
11042;SDS011;5574;48.786;10.120;2023-03-01T01:58:02;10.57;;;8.63;;
11042;SDS011;5574;48.786;10.120;2023-03-01T02:00:34;10.77;;;8.37;;
11042;SDS011;5574;48.786;10.120;2023-03-01T02:03:03;10.30;;;8.60;;
11042;SDS011;5574;48.786;10.120;2023-03-01T02:05:35;10.40;;;8.33;;
11042;SDS011;5574;48.786;10.120;2023-03-01T02:08:05;10.73;;;8.43;;
11042;SDS011;5574;48.786;10.120;2023-03-01T02:10:33;10.00;;;8.60;;
11042;SDS011;5574;48.786;10.120;2023-03-01T02:13:02;10.60;;;8.33;;
11042;SDS011;5574;48.786;10.120;2023-03-01T02:15:31;10.50;;;8.87;;
11042;SDS011;5574;48.786;10.120;2023-03-01T02:17:58;9.73;;;8.73;;
11042;SDS011;5574;48.786;10.120;2023-03-01T02:20:26;10.80;;;8.90;;
11042;SDS011;5574;48.786;10.120;2023-03-01T02:23:00;9.67;;;8.67;;
11042;SDS011;5574;48.786;10.120;2023-03-01T02:25:30;11.00;;;8.33;;
11042;SDS011;5574;48.786;10.120;2023-03-01T02:28:04;11.43;;;8.93;;
11042;SDS011;5574;48.786;10.120;2023-03-01T02:30:39;11.53;;;8.47;;
11042;SDS011;5574;48.786;10.120;2023-03-01T02:33:27;11.97;;;9.43;;
11042;SDS011;5574;48.786;10.120;2023-03-01T02:35:53;10.77;;;8.97;;
11042;SDS011;5574;48.786;10.120;2023-03-01T02:38:21;11.20;;;9.10;;
11042;SDS011;5574;48.786;10.120;2023-03-01T02:40:48;11.23;;;9.60;;
11042;SDS011;5574;48.786;10.120;2023-03-01T02:43:17;11.03;;;9.03;;
11042;SDS011;5574;48.786;10.120;2023-03-01T02:45:49;11.20;;;9.03;;
11042;SDS011;5574;48.786;10.120;2023-03-01T02:48:17;11.47;;;9.33;;
11042;SDS011;5574;48.786;10.120;2023-03-01T02:50:47;11.73;;;9.40;;
11042;SDS011;5574;48.786;10.120;2023-03-01T02:53:27;12.37;;;9.23;;
11042;SDS011;5574;48.786;10.120;2023-03-01T02:55:57;11.87;;;9.83;;
11042;SDS011;5574;48.786;10.120;2023-03-01T02:58:24;11.70;;;9.87;;
11042;SDS011;5574;48.786;10.120;2023-03-01T03:00:52;12.83;;;9.63;;
11042;SDS011;5574;48.786;10.120;2023-03-01T03:03:20;14.63;;;10.07;;
11042;SDS011;5574;48.786;10.120;2023-03-01T03:05:47;11.37;;;9.97;;
11042;SDS011;5574;48.786;10.120;2023-03-01T03:08:14;11.97;;;9.43;;
11042;SDS011;5574;48.786;10.120;2023-03-01T03:10:48;11.83;;;9.37;;
11042;SDS011;5574;48.786;10.120;2023-03-01T03:13:15;11.20;;;9.53;;
11042;SDS011;5574;48.786;10.120;2023-03-01T03:15:42;15.07;;;11.13;;
11042;SDS011;5574;48.786;10.120;2023-03-01T03:18:12;10.90;;;9.47;;
11042;SDS011;5574;48.786;10.120;2023-03-01T03:20:41;13.07;;;10.60;;
11042;SDS011;5574;48.786;10.120;2023-03-01T03:23:08;12.93;;;9.80;;
11042;SDS011;5574;48.786;10.120;2023-03-01T03:25:35;13.07;;;10.37;;
11042;SDS011;5574;48.786;10.120;2023-03-01T03:28:02;13.07;;;10.73;;
11042;SDS011;5574;48.786;10.120;2023-03-01T03:30:34;12.50;;;10.13;;
11042;SDS011;5574;48.786;10.120;2023-03-01T03:33:04;12.13;;;10.17;;
11042;SDS011;5574;48.786;10.120;2023-03-01T03:35:37;10.50;;;9.40;;
11042;SDS011;5574;48.786;10.120;2023-03-01T03:38:07;13.20;;;10.87;;
11042;SDS011;5574;48.786;10.120;2023-03-01T03:40:41;14.00;;;10.27;;
11042;SDS011;5574;48.786;10.120;2023-03-01T03:43:11;14.67;;;10.83;;
11042;SDS011;5574;48.786;10.120;2023-03-01T03:45:39;13.67;;;10.63;;
11042;SDS011;5574;48.786;10.120;2023-03-01T03:48:06;12.00;;;10.60;;
11042;SDS011;5574;48.786;10.120;2023-03-01T03:50:36;13.13;;;10.83;;
11042;SDS011;5574;48.786;10.120;2023-03-01T03:53:03;12.13;;;9.63;;
11042;SDS011;5574;48.786;10.120;2023-03-01T03:55:31;13.90;;;10.70;;
11042;SDS011;5574;48.786;10.120;2023-03-01T03:57:59;12.53;;;10.07;;
11042;SDS011;5574;48.786;10.120;2023-03-01T04:00:31;12.63;;;10.37;;
11042;SDS011;5574;48.786;10.120;2023-03-01T04:02:59;12.80;;;10.00;;
11042;SDS011;5574;48.786;10.120;2023-03-01T04:05:26;13.20;;;10.97;;
11042;SDS011;5574;48.786;10.120;2023-03-01T04:07:54;13.13;;;10.40;;
11042;SDS011;5574;48.786;10.120;2023-03-01T04:10:27;13.30;;;10.47;;
11042;SDS011;5574;48.786;10.120;2023-03-01T04:12:54;12.77;;;10.03;;
11042;SDS011;5574;48.786;10.120;2023-03-01T04:15:22;12.07;;;10.63;;
11042;SDS011;5574;48.786;10.120;2023-03-01T04:17:50;12.27;;;10.07;;
11042;SDS011;5574;48.786;10.120;2023-03-01T04:20:18;13.03;;;9.87;;
11042;SDS011;5574;48.786;10.120;2023-03-01T04:22:49;13.63;;;9.93;;
11042;SDS011;5574;48.786;10.120;2023-03-01T04:25:18;14.47;;;11.50;;
11042;SDS011;5574;48.786;10.120;2023-03-01T04:27:45;13.27;;;10.70;;
11042;SDS011;5574;48.786;10.120;2023-03-01T04:30:11;11.87;;;9.87;;
11042;SDS011;5574;48.786;10.120;2023-03-01T04:32:38;12.93;;;10.20;;
11042;SDS011;5574;48.786;10.120;2023-03-01T04:35:05;14.23;;;10.50;;
11042;SDS011;5574;48.786;10.120;2023-03-01T04:37:32;12.90;;;10.33;;
11042;SDS011;5574;48.786;10.120;2023-03-01T04:39:59;13.27;;;10.97;;
11042;SDS011;5574;48.786;10.120;2023-03-01T04:42:32;13.10;;;11.20;;
11042;SDS011;5574;48.786;10.120;2023-03-01T04:44:59;12.30;;;10.20;;
11042;SDS011;5574;48.786;10.120;2023-03-01T04:47:26;14.93;;;10.40;;
11042;SDS011;5574;48.786;10.120;2023-03-01T04:49:52;12.50;;;10.37;;
11042;SDS011;5574;48.786;10.120;2023-03-01T04:52:19;12.37;;;10.33;;
11042;SDS011;5574;48.786;10.120;2023-03-01T04:54:46;12.67;;;10.27;;
11042;SDS011;5574;48.786;10.120;2023-03-01T04:57:12;14.43;;;10.83;;
11042;SDS011;5574;48.786;10.120;2023-03-01T04:59:40;12.83;;;10.97;;
11042;SDS011;5574;48.786;10.120;2023-03-01T05:02:07;12.30;;;10.13;;
11042;SDS011;5574;48.786;10.120;2023-03-01T05:04:33;14.20;;;10.47;;
11042;SDS011;5574;48.786;10.120;2023-03-01T05:07:00;14.13;;;11.10;;
11042;SDS011;5574;48.786;10.120;2023-03-01T05:09:27;14.07;;;10.87;;
11042;SDS011;5574;48.786;10.120;2023-03-01T05:11:53;12.80;;;10.33;;
11042;SDS011;5574;48.786;10.120;2023-03-01T05:14:20;12.50;;;10.43;;
11042;SDS011;5574;48.786;10.120;2023-03-01T05:16:49;13.43;;;10.70;;
11042;SDS011;5574;48.786;10.120;2023-03-01T05:19:15;13.83;;;10.67;;
11042;SDS011;5574;48.786;10.120;2023-03-01T05:21:47;11.37;;;9.93;;
11042;SDS011;5574;48.786;10.120;2023-03-01T05:24:37;13.20;;;10.70;;
11042;SDS011;5574;48.786;10.120;2023-03-01T05:27:05;13.90;;;11.10;;
11042;SDS011;5574;48.786;10.120;2023-03-01T05:29:32;14.17;;;10.40;;
11042;SDS011;5574;48.786;10.120;2023-03-01T05:32:01;13.90;;;10.57;;
11042;SDS011;5574;48.786;10.120;2023-03-01T05:34:29;14.90;;;10.93;;
11042;SDS011;5574;48.786;10.120;2023-03-01T05:36:57;13.33;;;10.53;;
11042;SDS011;5574;48.786;10.120;2023-03-01T05:39:26;14.10;;;10.63;;
11042;SDS011;5574;48.786;10.120;2023-03-01T05:41:54;13.17;;;10.50;;
11042;SDS011;5574;48.786;10.120;2023-03-01T05:44:22;15.27;;;11.80;;
11042;SDS011;5574;48.786;10.120;2023-03-01T05:46:50;14.20;;;10.33;;
11042;SDS011;5574;48.786;10.120;2023-03-01T05:49:18;11.77;;;10.17;;
11042;SDS011;5574;48.786;10.120;2023-03-01T05:51:47;13.63;;;10.60;;
11042;SDS011;5574;48.786;10.120;2023-03-01T05:54:16;15.07;;;10.87;;
11042;SDS011;5574;48.786;10.120;2023-03-01T05:56:43;11.93;;;9.87;;
11042;SDS011;5574;48.786;10.120;2023-03-01T05:59:10;12.53;;;10.00;;
11042;SDS011;5574;48.786;10.120;2023-03-01T06:01:38;12.10;;;10.00;;
11042;SDS011;5574;48.786;10.120;2023-03-01T06:04:05;17.37;;;10.90;;
11042;SDS011;5574;48.786;10.120;2023-03-01T06:06:34;11.90;;;9.57;;
11042;SDS011;5574;48.786;10.120;2023-03-01T06:09:02;14.83;;;10.80;;
11042;SDS011;5574;48.786;10.120;2023-03-01T06:11:29;12.90;;;10.33;;
11042;SDS011;5574;48.786;10.120;2023-03-01T06:13:55;14.47;;;10.73;;
11042;SDS011;5574;48.786;10.120;2023-03-01T06:16:22;14.40;;;10.30;;
11042;SDS011;5574;48.786;10.120;2023-03-01T06:18:49;15.53;;;10.53;;
11042;SDS011;5574;48.786;10.120;2023-03-01T06:21:15;12.30;;;10.00;;
11042;SDS011;5574;48.786;10.120;2023-03-01T06:23:43;14.23;;;11.57;;
11042;SDS011;5574;48.786;10.120;2023-03-01T06:26:10;14.07;;;10.43;;
11042;SDS011;5574;48.786;10.120;2023-03-01T06:28:37;14.83;;;10.80;;
11042;SDS011;5574;48.786;10.120;2023-03-01T06:31:03;14.97;;;10.40;;
11042;SDS011;5574;48.786;10.120;2023-03-01T06:33:33;12.50;;;9.70;;
11042;SDS011;5574;48.786;10.120;2023-03-01T06:36:01;14.50;;;10.80;;
11042;SDS011;5574;48.786;10.120;2023-03-01T06:38:27;14.13;;;11.23;;
11042;SDS011;5574;48.786;10.120;2023-03-01T06:40:55;13.67;;;10.40;;
11042;SDS011;5574;48.786;10.120;2023-03-01T06:43:22;13.20;;;10.77;;
11042;SDS011;5574;48.786;10.120;2023-03-01T06:45:49;14.30;;;10.23;;
11042;SDS011;5574;48.786;10.120;2023-03-01T06:48:16;15.60;;;11.10;;
11042;SDS011;5574;48.786;10.120;2023-03-01T06:50:43;14.17;;;10.50;;
11042;SDS011;5574;48.786;10.120;2023-03-01T06:53:09;13.77;;;10.80;;
11042;SDS011;5574;48.786;10.120;2023-03-01T06:55:36;15.53;;;10.93;;
11042;SDS011;5574;48.786;10.120;2023-03-01T06:58:04;12.83;;;10.37;;
11042;SDS011;5574;48.786;10.120;2023-03-01T07:00:31;12.27;;;10.60;;
11042;SDS011;5574;48.786;10.120;2023-03-01T07:02:58;14.23;;;11.77;;
11042;SDS011;5574;48.786;10.120;2023-03-01T07:05:26;13.37;;;10.20;;
11042;SDS011;5574;48.786;10.120;2023-03-01T07:07:53;14.07;;;10.80;;
11042;SDS011;5574;48.786;10.120;2023-03-01T07:10:21;14.57;;;12.00;;
11042;SDS011;5574;48.786;10.120;2023-03-01T07:12:48;12.70;;;10.43;;
11042;SDS011;5574;48.786;10.120;2023-03-01T07:15:16;14.60;;;11.27;;
11042;SDS011;5574;48.786;10.120;2023-03-01T07:17:42;14.00;;;10.37;;
11042;SDS011;5574;48.786;10.120;2023-03-01T07:20:09;14.33;;;10.87;;
11042;SDS011;5574;48.786;10.120;2023-03-01T07:22:39;14.07;;;11.03;;
11042;SDS011;5574;48.786;10.120;2023-03-01T07:25:07;14.93;;;10.37;;
11042;SDS011;5574;48.786;10.120;2023-03-01T07:27:34;12.00;;;9.87;;
11042;SDS011;5574;48.786;10.120;2023-03-01T07:30:01;12.87;;;9.60;;
11042;SDS011;5574;48.786;10.120;2023-03-01T07:32:30;11.40;;;9.30;;
11042;SDS011;5574;48.786;10.120;2023-03-01T07:34:56;14.87;;;10.10;;
11042;SDS011;5574;48.786;10.120;2023-03-01T07:37:23;13.70;;;10.73;;
11042;SDS011;5574;48.786;10.120;2023-03-01T07:39:50;10.37;;;7.37;;
11042;SDS011;5574;48.786;10.120;2023-03-01T07:42:17;12.73;;;10.27;;
11042;SDS011;5574;48.786;10.120;2023-03-01T07:44:43;13.43;;;10.00;;
11042;SDS011;5574;48.786;10.120;2023-03-01T07:47:10;12.80;;;10.70;;
11042;SDS011;5574;48.786;10.120;2023-03-01T07:49:38;12.03;;;9.77;;
11042;SDS011;5574;48.786;10.120;2023-03-01T07:52:05;13.63;;;10.03;;
11042;SDS011;5574;48.786;10.120;2023-03-01T07:54:31;13.20;;;10.13;;
11042;SDS011;5574;48.786;10.120;2023-03-01T07:56:58;15.47;;;9.10;;
11042;SDS011;5574;48.786;10.120;2023-03-01T07:59:25;15.00;;;10.40;;
11042;SDS011;5574;48.786;10.120;2023-03-01T08:01:54;11.50;;;9.83;;
11042;SDS011;5574;48.786;10.120;2023-03-01T08:04:20;14.23;;;11.23;;
11042;SDS011;5574;48.786;10.120;2023-03-01T08:06:51;11.13;;;8.90;;
11042;SDS011;5574;48.786;10.120;2023-03-01T08:09:17;14.13;;;10.40;;
11042;SDS011;5574;48.786;10.120;2023-03-01T08:11:44;12.83;;;9.87;;
11042;SDS011;5574;48.786;10.120;2023-03-01T08:14:11;7.87;;;6.03;;
11042;SDS011;5574;48.786;10.120;2023-03-01T08:16:38;12.90;;;9.60;;
11042;SDS011;5574;48.786;10.120;2023-03-01T08:19:04;12.43;;;10.00;;
11042;SDS011;5574;48.786;10.120;2023-03-01T08:21:31;11.30;;;7.07;;
11042;SDS011;5574;48.786;10.120;2023-03-01T08:24:01;13.20;;;9.70;;
11042;SDS011;5574;48.786;10.120;2023-03-01T08:26:27;11.17;;;8.20;;
11042;SDS011;5574;48.786;10.120;2023-03-01T08:28:54;15.07;;;11.00;;
11042;SDS011;5574;48.786;10.120;2023-03-01T08:31:22;11.83;;;9.00;;
11042;SDS011;5574;48.786;10.120;2023-03-01T08:33:51;13.67;;;9.37;;
11042;SDS011;5574;48.786;10.120;2023-03-01T08:36:21;8.07;;;5.70;;
11042;SDS011;5574;48.786;10.120;2023-03-01T08:38:48;14.30;;;9.33;;
11042;SDS011;5574;48.786;10.120;2023-03-01T08:41:17;11.60;;;9.20;;
11042;SDS011;5574;48.786;10.120;2023-03-01T08:43:44;13.70;;;10.17;;
11042;SDS011;5574;48.786;10.120;2023-03-01T08:46:11;6.57;;;4.57;;
11042;SDS011;5574;48.786;10.120;2023-03-01T08:48:38;9.83;;;7.73;;
11042;SDS011;5574;48.786;10.120;2023-03-01T08:51:08;10.87;;;9.00;;
11042;SDS011;5574;48.786;10.120;2023-03-01T08:53:37;13.63;;;10.00;;
11042;SDS011;5574;48.786;10.120;2023-03-01T08:56:04;14.00;;;10.40;;
11042;SDS011;5574;48.786;10.120;2023-03-01T08:58:32;11.37;;;7.30;;
11042;SDS011;5574;48.786;10.120;2023-03-01T09:00:59;12.33;;;8.17;;
11042;SDS011;5574;48.786;10.120;2023-03-01T09:03:26;18.23;;;9.70;;
11042;SDS011;5574;48.786;10.120;2023-03-01T09:05:53;7.30;;;5.57;;
11042;SDS011;5574;48.786;10.120;2023-03-01T09:08:26;10.30;;;7.43;;
11042;SDS011;5574;48.786;10.120;2023-03-01T09:10:53;6.57;;;4.90;;
11042;SDS011;5574;48.786;10.120;2023-03-01T09:13:19;7.47;;;5.97;;
11042;SDS011;5574;48.786;10.120;2023-03-01T09:15:50;5.83;;;4.93;;
11042;SDS011;5574;48.786;10.120;2023-03-01T09:18:16;9.53;;;6.67;;
11042;SDS011;5574;48.786;10.120;2023-03-01T09:20:43;11.87;;;8.37;;
11042;SDS011;5574;48.786;10.120;2023-03-01T09:23:10;10.33;;;7.97;;
11042;SDS011;5574;48.786;10.120;2023-03-01T09:25:36;7.27;;;5.30;;
11042;SDS011;5574;48.786;10.120;2023-03-01T09:28:03;8.63;;;7.30;;
11042;SDS011;5574;48.786;10.120;2023-03-01T09:30:30;6.77;;;5.73;;
11042;SDS011;5574;48.786;10.120;2023-03-01T09:32:58;13.03;;;10.07;;
11042;SDS011;5574;48.786;10.120;2023-03-01T09:35:25;4.90;;;3.57;;
11042;SDS011;5574;48.786;10.120;2023-03-01T09:37:51;10.47;;;6.90;;
11042;SDS011;5574;48.786;10.120;2023-03-01T09:40:19;10.77;;;8.23;;
11042;SDS011;5574;48.786;10.120;2023-03-01T09:42:50;13.80;;;9.87;;
11042;SDS011;5574;48.786;10.120;2023-03-01T09:45:29;9.17;;;7.10;;
11042;SDS011;5574;48.786;10.120;2023-03-01T09:48:02;15.40;;;7.50;;
11042;SDS011;5574;48.786;10.120;2023-03-01T09:50:33;10.40;;;7.93;;
11042;SDS011;5574;48.786;10.120;2023-03-01T09:53:02;12.27;;;8.77;;
11042;SDS011;5574;48.786;10.120;2023-03-01T09:55:33;13.20;;;6.77;;
11042;SDS011;5574;48.786;10.120;2023-03-01T09:58:25;12.37;;;9.40;;
11042;SDS011;5574;48.786;10.120;2023-03-01T10:01:02;14.63;;;10.70;;
11042;SDS011;5574;48.786;10.120;2023-03-01T10:03:43;6.37;;;5.73;;
11042;SDS011;5574;48.786;10.120;2023-03-01T10:06:15;14.53;;;10.67;;
11042;SDS011;5574;48.786;10.120;2023-03-01T10:08:49;9.57;;;7.03;;
11042;SDS011;5574;48.786;10.120;2023-03-01T10:11:21;9.70;;;8.10;;
11042;SDS011;5574;48.786;10.120;2023-03-01T10:13:51;13.87;;;10.87;;
11042;SDS011;5574;48.786;10.120;2023-03-01T10:16:23;8.30;;;5.97;;
11042;SDS011;5574;48.786;10.120;2023-03-01T10:18:58;8.60;;;6.23;;
11042;SDS011;5574;48.786;10.120;2023-03-01T10:21:27;13.20;;;10.13;;
11042;SDS011;5574;48.786;10.120;2023-03-01T10:23:56;13.73;;;9.57;;
11042;SDS011;5574;48.786;10.120;2023-03-01T10:26:38;14.20;;;10.33;;
11042;SDS011;5574;48.786;10.120;2023-03-01T10:29:13;10.30;;;7.13;;
11042;SDS011;5574;48.786;10.120;2023-03-01T10:31:41;12.10;;;10.27;;
11042;SDS011;5574;48.786;10.120;2023-03-01T10:34:12;9.77;;;7.00;;
11042;SDS011;5574;48.786;10.120;2023-03-01T10:36:41;5.13;;;4.20;;
11042;SDS011;5574;48.786;10.120;2023-03-01T10:39:13;9.37;;;7.33;;
11042;SDS011;5574;48.786;10.120;2023-03-01T10:41:52;8.60;;;5.27;;
11042;SDS011;5574;48.786;10.120;2023-03-01T10:44:38;9.43;;;7.33;;
11042;SDS011;5574;48.786;10.120;2023-03-01T10:47:13;6.73;;;5.67;;
11042;SDS011;5574;48.786;10.120;2023-03-01T10:49:54;4.93;;;3.73;;
11042;SDS011;5574;48.786;10.120;2023-03-01T10:52:27;10.90;;;7.83;;
11042;SDS011;5574;48.786;10.120;2023-03-01T10:54:59;11.37;;;9.23;;
11042;SDS011;5574;48.786;10.120;2023-03-01T10:57:29;9.50;;;7.33;;
11042;SDS011;5574;48.786;10.120;2023-03-01T11:02:47;26.47;;;9.10;;
11042;SDS011;5574;48.786;10.120;2023-03-01T11:05:23;9.63;;;6.73;;
11042;SDS011;5574;48.786;10.120;2023-03-01T11:07:51;11.47;;;8.43;;
11042;SDS011;5574;48.786;10.120;2023-03-01T11:10:20;7.13;;;5.13;;
11042;SDS011;5574;48.786;10.120;2023-03-01T11:12:48;10.33;;;7.97;;
11042;SDS011;5574;48.786;10.120;2023-03-01T11:15:24;7.63;;;6.37;;
11042;SDS011;5574;48.786;10.120;2023-03-01T11:17:52;6.27;;;4.80;;
11042;SDS011;5574;48.786;10.120;2023-03-01T11:20:24;7.83;;;6.30;;
11042;SDS011;5574;48.786;10.120;2023-03-01T11:22:56;5.73;;;5.00;;
11042;SDS011;5574;48.786;10.120;2023-03-01T11:25:26;12.30;;;6.17;;
11042;SDS011;5574;48.786;10.120;2023-03-01T11:27:56;8.27;;;5.33;;
11042;SDS011;5574;48.786;10.120;2023-03-01T11:30:27;6.00;;;5.07;;
11042;SDS011;5574;48.786;10.120;2023-03-01T11:33:01;10.07;;;7.70;;
11042;SDS011;5574;48.786;10.120;2023-03-01T11:35:36;9.47;;;6.13;;
11042;SDS011;5574;48.786;10.120;2023-03-01T11:38:12;10.17;;;7.77;;
11042;SDS011;5574;48.786;10.120;2023-03-01T11:40:46;10.67;;;7.57;;
11042;SDS011;5574;48.786;10.120;2023-03-01T11:43:17;8.00;;;6.97;;
11042;SDS011;5574;48.786;10.120;2023-03-01T11:45:56;7.10;;;6.13;;
11042;SDS011;5574;48.786;10.120;2023-03-01T11:48:48;12.17;;;8.27;;
11042;SDS011;5574;48.786;10.120;2023-03-01T11:51:31;5.60;;;4.80;;
11042;SDS011;5574;48.786;10.120;2023-03-01T11:54:09;7.33;;;6.20;;
11042;SDS011;5574;48.786;10.120;2023-03-01T11:56:45;11.27;;;7.83;;
11042;SDS011;5574;48.786;10.120;2023-03-01T11:59:29;9.53;;;7.70;;
11042;SDS011;5574;48.786;10.120;2023-03-01T12:02:22;6.80;;;5.33;;
11042;SDS011;5574;48.786;10.120;2023-03-01T12:05:10;13.60;;;8.27;;
11042;SDS011;5574;48.786;10.120;2023-03-01T12:07:51;9.37;;;8.13;;
11042;SDS011;5574;48.786;10.120;2023-03-01T12:10:25;10.07;;;8.50;;
11042;SDS011;5574;48.786;10.120;2023-03-01T12:12:58;14.90;;;7.60;;
11042;SDS011;5574;48.786;10.120;2023-03-01T12:15:51;7.97;;;6.97;;
11042;SDS011;5574;48.786;10.120;2023-03-01T12:18:49;12.07;;;8.87;;
11042;SDS011;5574;48.786;10.120;2023-03-01T12:27:42;10.90;;;8.23;;
11042;SDS011;5574;48.786;10.120;2023-03-01T12:30:26;8.67;;;6.37;;
11042;SDS011;5574;48.786;10.120;2023-03-01T12:33:03;9.93;;;7.83;;
11042;SDS011;5574;48.786;10.120;2023-03-01T12:38:37;6.40;;;5.20;;
11042;SDS011;5574;48.786;10.120;2023-03-01T12:41:13;14.23;;;8.23;;
11042;SDS011;5574;48.786;10.120;2023-03-01T12:44:01;11.07;;;8.43;;
11042;SDS011;5574;48.786;10.120;2023-03-01T12:46:49;11.00;;;8.67;;
11042;SDS011;5574;48.786;10.120;2023-03-01T12:49:25;10.10;;;8.73;;
11042;SDS011;5574;48.786;10.120;2023-03-01T12:51:58;12.17;;;8.93;;
11042;SDS011;5574;48.786;10.120;2023-03-01T12:54:28;10.17;;;7.90;;
11042;SDS011;5574;48.786;10.120;2023-03-01T12:56:58;10.90;;;9.43;;
11042;SDS011;5574;48.786;10.120;2023-03-01T12:59:31;11.70;;;10.47;;
11042;SDS011;5574;48.786;10.120;2023-03-01T13:02:04;15.73;;;11.30;;
11042;SDS011;5574;48.786;10.120;2023-03-01T13:04:48;16.33;;;12.30;;
11042;SDS011;5574;48.786;10.120;2023-03-01T13:07:29;12.10;;;9.37;;
11042;SDS011;5574;48.786;10.120;2023-03-01T13:10:05;13.03;;;10.90;;
11042;SDS011;5574;48.786;10.120;2023-03-01T13:12:45;11.90;;;10.70;;
11042;SDS011;5574;48.786;10.120;2023-03-01T13:15:28;11.43;;;9.07;;
11042;SDS011;5574;48.786;10.120;2023-03-01T13:17:58;13.17;;;10.13;;
11042;SDS011;5574;48.786;10.120;2023-03-01T13:20:26;12.43;;;10.77;;
11042;SDS011;5574;48.786;10.120;2023-03-01T13:26:01;13.80;;;10.40;;
11042;SDS011;5574;48.786;10.120;2023-03-01T13:28:40;12.43;;;9.87;;
11042;SDS011;5574;48.786;10.120;2023-03-01T13:37:30;10.40;;;8.00;;
11042;SDS011;5574;48.786;10.120;2023-03-01T13:40:00;12.80;;;10.80;;
11042;SDS011;5574;48.786;10.120;2023-03-01T13:42:31;13.50;;;10.50;;
11042;SDS011;5574;48.786;10.120;2023-03-01T13:45:14;12.73;;;10.50;;
11042;SDS011;5574;48.786;10.120;2023-03-01T13:47:46;12.57;;;8.07;;
11042;SDS011;5574;48.786;10.120;2023-03-01T13:50:17;10.67;;;8.60;;
11042;SDS011;5574;48.786;10.120;2023-03-01T13:52:48;12.13;;;10.10;;
11042;SDS011;5574;48.786;10.120;2023-03-01T13:55:19;31.20;;;11.73;;
11042;SDS011;5574;48.786;10.120;2023-03-01T13:57:51;12.33;;;9.93;;
11042;SDS011;5574;48.786;10.120;2023-03-01T14:00:26;10.80;;;8.50;;
11042;SDS011;5574;48.786;10.120;2023-03-01T14:03:01;12.77;;;10.03;;
11042;SDS011;5574;48.786;10.120;2023-03-01T14:05:31;11.83;;;9.13;;
11042;SDS011;5574;48.786;10.120;2023-03-01T14:07:58;10.60;;;9.47;;
11042;SDS011;5574;48.786;10.120;2023-03-01T14:10:25;9.23;;;7.33;;
11042;SDS011;5574;48.786;10.120;2023-03-01T14:12:59;13.27;;;9.57;;
11042;SDS011;5574;48.786;10.120;2023-03-01T14:15:34;16.07;;;9.13;;
11042;SDS011;5574;48.786;10.120;2023-03-01T14:18:07;10.87;;;9.37;;
11042;SDS011;5574;48.786;10.120;2023-03-01T14:20:40;11.27;;;8.37;;
11042;SDS011;5574;48.786;10.120;2023-03-01T14:23:09;13.83;;;9.97;;
11042;SDS011;5574;48.786;10.120;2023-03-01T14:25:38;10.87;;;8.60;;
11042;SDS011;5574;48.786;10.120;2023-03-01T14:28:14;11.90;;;9.40;;
11042;SDS011;5574;48.786;10.120;2023-03-01T14:30:44;18.93;;;9.83;;
11042;SDS011;5574;48.786;10.120;2023-03-01T14:33:19;11.67;;;8.90;;
11042;SDS011;5574;48.786;10.120;2023-03-01T14:35:52;13.67;;;8.90;;
11042;SDS011;5574;48.786;10.120;2023-03-01T14:38:20;13.93;;;8.83;;
11042;SDS011;5574;48.786;10.120;2023-03-01T14:40:48;11.90;;;9.27;;
11042;SDS011;5574;48.786;10.120;2023-03-01T14:43:20;8.00;;;5.57;;
11042;SDS011;5574;48.786;10.120;2023-03-01T14:45:50;7.57;;;4.93;;
11042;SDS011;5574;48.786;10.120;2023-03-01T14:48:18;12.03;;;10.00;;
11042;SDS011;5574;48.786;10.120;2023-03-01T14:50:47;11.70;;;9.77;;
11042;SDS011;5574;48.786;10.120;2023-03-01T14:53:16;11.70;;;9.73;;
11042;SDS011;5574;48.786;10.120;2023-03-01T14:55:46;15.27;;;9.87;;
11042;SDS011;5574;48.786;10.120;2023-03-01T14:58:18;9.97;;;8.40;;
11042;SDS011;5574;48.786;10.120;2023-03-01T15:00:46;13.03;;;10.23;;
11042;SDS011;5574;48.786;10.120;2023-03-01T15:03:18;12.37;;;10.00;;
11042;SDS011;5574;48.786;10.120;2023-03-01T15:05:50;23.80;;;16.87;;
11042;SDS011;5574;48.786;10.120;2023-03-01T15:08:19;43.97;;;24.40;;
11042;SDS011;5574;48.786;10.120;2023-03-01T15:10:55;20.47;;;13.07;;
11042;SDS011;5574;48.786;10.120;2023-03-01T15:13:26;22.13;;;15.97;;